sensor_id;sensor_type;location;lat;lon;timestamp;pressure;altitude;pressure_sealevel;temperature;humidity
35307;BME280;21420;52.196;21.416;2022-07-29T00:02:27;100802.50;;;12.42;55.14
35307;BME280;21420;52.196;21.416;2022-07-29T00:04:53;100800.77;;;12.38;55.18
35307;BME280;21420;52.196;21.416;2022-07-29T00:07:20;100801.34;;;12.37;55.26
35307;BME280;21420;52.196;21.416;2022-07-29T00:09:46;100805.64;;;12.26;55.00
35307;BME280;21420;52.196;21.416;2022-07-29T00:12:13;100811.28;;;12.08;54.87
35307;BME280;21420;52.196;21.416;2022-07-29T00:14:39;100809.23;;;11.91;54.85
35307;BME280;21420;52.196;21.416;2022-07-29T00:17:05;100809.14;;;11.78;55.15
35307;BME280;21420;52.196;21.416;2022-07-29T00:19:31;100807.77;;;11.78;55.51
35307;BME280;21420;52.196;21.416;2022-07-29T00:22:01;100812.36;;;11.80;55.67
35307;BME280;21420;52.196;21.416;2022-07-29T00:24:31;100812.69;;;11.79;55.74
35307;BME280;21420;52.196;21.416;2022-07-29T00:26:57;100810.27;;;11.77;55.86
35307;BME280;21420;52.196;21.416;2022-07-29T00:29:24;100810.84;;;11.77;55.95
35307;BME280;21420;52.196;21.416;2022-07-29T00:31:50;100814.95;;;11.77;55.96
35307;BME280;21420;52.196;21.416;2022-07-29T00:34:17;100814.02;;;11.73;55.94
35307;BME280;21420;52.196;21.416;2022-07-29T00:37:01;100808.83;;;11.65;55.86
35307;BME280;21420;52.196;21.416;2022-07-29T00:39:28;100813.89;;;11.54;55.92
35307;BME280;21420;52.196;21.416;2022-07-29T00:41:55;100814.47;;;11.54;56.18
35307;BME280;21420;52.196;21.416;2022-07-29T00:44:21;100816.95;;;11.53;56.28
35307;BME280;21420;52.196;21.416;2022-07-29T00:46:48;100816.16;;;11.52;56.39
35307;BME280;21420;52.196;21.416;2022-07-29T00:49:14;100810.35;;;11.54;56.56
35307;BME280;21420;52.196;21.416;2022-07-29T00:51:40;100820.64;;;11.57;56.58
35307;BME280;21420;52.196;21.416;2022-07-29T00:54:07;100813.47;;;11.58;56.63
35307;BME280;21420;52.196;21.416;2022-07-29T00:56:33;100813.84;;;11.63;56.78
35307;BME280;21420;52.196;21.416;2022-07-29T00:58:59;100811.58;;;11.65;56.81
35307;BME280;21420;52.196;21.416;2022-07-29T01:01:26;100807.13;;;11.66;56.82
35307;BME280;21420;52.196;21.416;2022-07-29T01:03:54;100805.41;;;11.68;56.86
35307;BME280;21420;52.196;21.416;2022-07-29T01:06:20;100801.08;;;11.67;56.85
35307;BME280;21420;52.196;21.416;2022-07-29T01:08:47;100797.28;;;11.65;56.87
35307;BME280;21420;52.196;21.416;2022-07-29T01:11:15;100795.91;;;11.65;56.95
35307;BME280;21420;52.196;21.416;2022-07-29T01:13:43;100792.05;;;11.66;57.03
35307;BME280;21420;52.196;21.416;2022-07-29T01:16:21;100785.41;;;11.67;57.04
35307;BME280;21420;52.196;21.416;2022-07-29T01:18:47;100788.30;;;11.71;57.11
35307;BME280;21420;52.196;21.416;2022-07-29T01:29:56;100786.89;;;11.86;57.33
35307;BME280;21420;52.196;21.416;2022-07-29T01:32:33;100796.48;;;11.80;57.23
35307;BME280;21420;52.196;21.416;2022-07-29T01:35:23;100791.27;;;11.72;57.19
35307;BME280;21420;52.196;21.416;2022-07-29T01:37:57;100793.84;;;11.62;57.14
35307;BME280;21420;52.196;21.416;2022-07-29T01:43:19;100786.56;;;11.52;57.36
35307;BME280;21420;52.196;21.416;2022-07-29T01:45:51;100790.78;;;11.49;57.41
35307;BME280;21420;52.196;21.416;2022-07-29T01:48:42;100785.72;;;11.45;57.43
35307;BME280;21420;52.196;21.416;2022-07-29T01:51:18;100783.39;;;11.41;57.48
35307;BME280;21420;52.196;21.416;2022-07-29T01:53:55;100788.56;;;11.42;57.63
35307;BME280;21420;52.196;21.416;2022-07-29T01:56:31;100790.41;;;11.44;57.65
35307;BME280;21420;52.196;21.416;2022-07-29T01:58:59;100790.73;;;11.43;57.69
35307;BME280;21420;52.196;21.416;2022-07-29T02:01:27;100797.68;;;11.40;57.69
35307;BME280;21420;52.196;21.416;2022-07-29T02:03:56;100794.56;;;11.36;57.75
35307;BME280;21420;52.196;21.416;2022-07-29T02:06:25;100799.37;;;11.39;57.80
35307;BME280;21420;52.196;21.416;2022-07-29T02:08:53;100804.31;;;11.39;57.85
35307;BME280;21420;52.196;21.416;2022-07-29T02:11:20;100806.48;;;11.40;57.86
35307;BME280;21420;52.196;21.416;2022-07-29T02:13:47;100801.57;;;11.39;57.90
35307;BME280;21420;52.196;21.416;2022-07-29T02:19:05;100804.22;;;11.42;58.08
35307;BME280;21420;52.196;21.416;2022-07-29T02:21:35;100804.11;;;11.44;58.15
35307;BME280;21420;52.196;21.416;2022-07-29T02:24:02;100802.22;;;11.51;58.27
35307;BME280;21420;52.196;21.416;2022-07-29T02:26:33;100806.94;;;11.57;58.66
35307;BME280;21420;52.196;21.416;2022-07-29T02:29:00;100806.77;;;11.62;58.39
35307;BME280;21420;52.196;21.416;2022-07-29T02:31:30;100806.41;;;11.63;58.34
35307;BME280;21420;52.196;21.416;2022-07-29T02:33:59;100804.02;;;11.62;58.35
35307;BME280;21420;52.196;21.416;2022-07-29T02:36:28;100806.51;;;11.61;58.34
35307;BME280;21420;52.196;21.416;2022-07-29T02:38:56;100808.93;;;11.62;58.44
35307;BME280;21420;52.196;21.416;2022-07-29T02:41:39;100808.93;;;11.62;58.48
35307;BME280;21420;52.196;21.416;2022-07-29T02:44:11;100805.39;;;11.62;58.49
35307;BME280;21420;52.196;21.416;2022-07-29T02:47:10;100805.46;;;11.59;58.50
35307;BME280;21420;52.196;21.416;2022-07-29T02:49:41;100803.24;;;11.53;58.55
35307;BME280;21420;52.196;21.416;2022-07-29T02:52:23;100807.13;;;11.52;58.64
35307;BME280;21420;52.196;21.416;2022-07-29T03:00:23;100810.88;;;11.47;58.76
35307;BME280;21420;52.196;21.416;2022-07-29T03:02:52;100806.98;;;11.48;58.83
35307;BME280;21420;52.196;21.416;2022-07-29T03:05:20;100810.20;;;11.50;58.85
35307;BME280;21420;52.196;21.416;2022-07-29T03:07:55;100813.19;;;11.51;58.95
35307;BME280;21420;52.196;21.416;2022-07-29T03:10:25;100812.52;;;11.54;58.97
35307;BME280;21420;52.196;21.416;2022-07-29T03:12:51;100803.17;;;11.55;58.95
35307;BME280;21420;52.196;21.416;2022-07-29T03:15:18;100809.87;;;11.52;58.94
35307;BME280;21420;52.196;21.416;2022-07-29T03:17:45;100801.75;;;11.49;58.99
35307;BME280;21420;52.196;21.416;2022-07-29T03:20:12;100805.48;;;11.44;59.02
35307;BME280;21420;52.196;21.416;2022-07-29T03:22:41;100805.29;;;11.50;59.10
35307;BME280;21420;52.196;21.416;2022-07-29T03:25:14;100810.45;;;11.51;59.14
35307;BME280;21420;52.196;21.416;2022-07-29T03:27:42;100810.03;;;11.55;59.25
35307;BME280;21420;52.196;21.416;2022-07-29T03:30:11;100804.81;;;11.62;59.31
35307;BME280;21420;52.196;21.416;2022-07-29T03:32:39;100807.98;;;11.73;59.52
35307;BME280;21420;52.196;21.416;2022-07-29T03:35:07;100813.16;;;11.81;59.43
35307;BME280;21420;52.196;21.416;2022-07-29T03:37:34;100812.48;;;11.84;59.43
35307;BME280;21420;52.196;21.416;2022-07-29T03:40:05;100814.58;;;11.87;59.43
35307;BME280;21420;52.196;21.416;2022-07-29T03:42:35;100814.18;;;11.91;59.46
35307;BME280;21420;52.196;21.416;2022-07-29T03:45:08;100817.29;;;11.96;59.53
35307;BME280;21420;52.196;21.416;2022-07-29T03:47:40;100807.80;;;11.99;59.46
35307;BME280;21420;52.196;21.416;2022-07-29T03:50:11;100807.38;;;12.03;59.53
35307;BME280;21420;52.196;21.416;2022-07-29T03:52:40;100805.21;;;12.09;59.57
35307;BME280;21420;52.196;21.416;2022-07-29T03:55:07;100800.02;;;12.16;59.66
35307;BME280;21420;52.196;21.416;2022-07-29T03:57:35;100796.26;;;12.27;59.70
35307;BME280;21420;52.196;21.416;2022-07-29T04:00:04;100801.23;;;12.40;59.78
35307;BME280;21420;52.196;21.416;2022-07-29T04:02:38;100800.72;;;12.53;59.86
35307;BME280;21420;52.196;21.416;2022-07-29T04:05:05;100797.05;;;12.61;59.82
35307;BME280;21420;52.196;21.416;2022-07-29T04:07:35;100792.73;;;12.72;59.92
35307;BME280;21420;52.196;21.416;2022-07-29T04:10:01;100798.50;;;12.91;60.16
35307;BME280;21420;52.196;21.416;2022-07-29T04:12:27;100796.11;;;13.15;60.24
35307;BME280;21420;52.196;21.416;2022-07-29T04:14:53;100799.34;;;13.35;60.34
35307;BME280;21420;52.196;21.416;2022-07-29T04:17:19;100802.33;;;13.61;60.61
35307;BME280;21420;52.196;21.416;2022-07-29T04:19:45;100801.37;;;13.81;60.42
35307;BME280;21420;52.196;21.416;2022-07-29T04:22:11;100801.90;;;13.99;60.37
35307;BME280;21420;52.196;21.416;2022-07-29T04:24:37;100800.70;;;14.12;60.32
35307;BME280;21420;52.196;21.416;2022-07-29T04:27:03;100802.14;;;14.28;60.40
35307;BME280;21420;52.196;21.416;2022-07-29T04:29:29;100809.07;;;14.44;60.33
35307;BME280;21420;52.196;21.416;2022-07-29T04:31:55;100802.82;;;14.53;60.29
35307;BME280;21420;52.196;21.416;2022-07-29T04:34:21;100804.52;;;14.64;60.30
35307;BME280;21420;52.196;21.416;2022-07-29T04:36:48;100806.53;;;14.73;60.23
35307;BME280;21420;52.196;21.416;2022-07-29T04:39:14;100814.27;;;14.84;60.29
35307;BME280;21420;52.196;21.416;2022-07-29T04:41:40;100811.89;;;14.98;60.32
35307;BME280;21420;52.196;21.416;2022-07-29T04:44:06;100808.24;;;15.10;60.32
35307;BME280;21420;52.196;21.416;2022-07-29T04:46:33;100805.07;;;15.17;60.22
35307;BME280;21420;52.196;21.416;2022-07-29T04:48:59;100811.23;;;15.27;60.26
35307;BME280;21420;52.196;21.416;2022-07-29T04:51:25;100806.77;;;15.38;60.39
35307;BME280;21420;52.196;21.416;2022-07-29T04:53:52;100811.23;;;15.52;60.39
35307;BME280;21420;52.196;21.416;2022-07-29T04:56:18;100807.98;;;15.66;60.41
35307;BME280;21420;52.196;21.416;2022-07-29T04:58:44;100815.23;;;15.80;60.40
35307;BME280;21420;52.196;21.416;2022-07-29T05:01:10;100818.08;;;15.94;60.44
35307;BME280;21420;52.196;21.416;2022-07-29T05:03:36;100819.50;;;16.03;60.36
35307;BME280;21420;52.196;21.416;2022-07-29T05:06:02;100823.34;;;16.18;60.43
35307;BME280;21420;52.196;21.416;2022-07-29T05:08:29;100816.50;;;16.32;60.43
35307;BME280;21420;52.196;21.416;2022-07-29T05:10:55;100815.83;;;16.48;60.42
35307;BME280;21420;52.196;21.416;2022-07-29T05:13:21;100818.38;;;16.67;60.58
35307;BME280;21420;52.196;21.416;2022-07-29T05:15:47;100826.16;;;16.80;60.38
35307;BME280;21420;52.196;21.416;2022-07-29T05:18:13;100824.45;;;16.85;60.25
35307;BME280;21420;52.196;21.416;2022-07-29T05:20:40;100835.28;;;16.94;60.19
35307;BME280;21420;52.196;21.416;2022-07-29T05:23:06;100831.48;;;17.02;60.21
35307;BME280;21420;52.196;21.416;2022-07-29T05:25:32;100831.45;;;17.12;60.12
35307;BME280;21420;52.196;21.416;2022-07-29T05:27:58;100831.13;;;17.17;59.90
35307;BME280;21420;52.196;21.416;2022-07-29T05:30:24;100836.14;;;17.21;60.03
35307;BME280;21420;52.196;21.416;2022-07-29T05:32:50;100833.75;;;17.33;60.12
35307;BME280;21420;52.196;21.416;2022-07-29T05:35:17;100830.89;;;17.39;60.00
35307;BME280;21420;52.196;21.416;2022-07-29T05:37:43;100830.27;;;17.50;59.99
35307;BME280;21420;52.196;21.416;2022-07-29T05:40:10;100828.03;;;17.59;59.90
35307;BME280;21420;52.196;21.416;2022-07-29T05:42:36;100831.86;;;17.64;59.70
35307;BME280;21420;52.196;21.416;2022-07-29T05:45:03;100833.61;;;17.62;59.46
35307;BME280;21420;52.196;21.416;2022-07-29T05:47:30;100835.16;;;17.60;59.52
35307;BME280;21420;52.196;21.416;2022-07-29T05:49:57;100837.40;;;17.64;59.44
35307;BME280;21420;52.196;21.416;2022-07-29T05:52:23;100836.02;;;17.64;59.42
35307;BME280;21420;52.196;21.416;2022-07-29T05:54:49;100832.81;;;17.75;59.67
35307;BME280;21420;52.196;21.416;2022-07-29T05:57:23;100836.13;;;17.98;59.91
35307;BME280;21420;52.196;21.416;2022-07-29T05:59:51;100831.66;;;18.20;59.70
35307;BME280;21420;52.196;21.416;2022-07-29T06:02:17;100830.81;;;18.33;59.65
35307;BME280;21420;52.196;21.416;2022-07-29T06:04:44;100825.57;;;18.41;59.42
35307;BME280;21420;52.196;21.416;2022-07-29T06:07:10;100817.80;;;18.54;59.48
35307;BME280;21420;52.196;21.416;2022-07-29T06:09:37;100817.94;;;18.68;59.40
35307;BME280;21420;52.196;21.416;2022-07-29T06:12:04;100816.92;;;18.66;59.04
35307;BME280;21420;52.196;21.416;2022-07-29T06:14:30;100810.92;;;18.78;59.20
35307;BME280;21420;52.196;21.416;2022-07-29T06:16:57;100814.95;;;18.84;59.03
35307;BME280;21420;52.196;21.416;2022-07-29T06:19:23;100812.47;;;18.92;59.00
35307;BME280;21420;52.196;21.416;2022-07-29T06:21:49;100819.42;;;18.96;58.82
35307;BME280;21420;52.196;21.416;2022-07-29T06:24:16;100822.28;;;19.03;58.89
35307;BME280;21420;52.196;21.416;2022-07-29T06:26:42;100816.92;;;19.04;58.49
35307;BME280;21420;52.196;21.416;2022-07-29T06:29:09;100819.80;;;19.14;58.64
35307;BME280;21420;52.196;21.416;2022-07-29T06:31:36;100809.86;;;19.13;58.42
35307;BME280;21420;52.196;21.416;2022-07-29T06:34:03;100820.69;;;19.29;58.68
35307;BME280;21420;52.196;21.416;2022-07-29T06:36:30;100816.02;;;19.41;58.44
35307;BME280;21420;52.196;21.416;2022-07-29T06:38:58;100816.84;;;19.45;58.27
35307;BME280;21420;52.196;21.416;2022-07-29T06:41:24;100819.47;;;19.51;58.38
35307;BME280;21420;52.196;21.416;2022-07-29T06:43:51;100824.09;;;19.60;58.18
35307;BME280;21420;52.196;21.416;2022-07-29T06:46:18;100820.16;;;19.65;58.15
35307;BME280;21420;52.196;21.416;2022-07-29T06:48:45;100822.06;;;19.81;58.23
35307;BME280;21420;52.196;21.416;2022-07-29T06:51:16;100816.97;;;19.94;58.13
35307;BME280;21420;52.196;21.416;2022-07-29T06:53:42;100818.04;;;20.10;58.05
35307;BME280;21420;52.196;21.416;2022-07-29T06:56:09;100817.70;;;20.22;58.06
35307;BME280;21420;52.196;21.416;2022-07-29T06:58:35;100814.73;;;20.25;57.71
35307;BME280;21420;52.196;21.416;2022-07-29T07:01:04;100816.80;;;20.53;58.10
35307;BME280;21420;52.196;21.416;2022-07-29T07:03:32;100817.09;;;21.36;57.57
35307;BME280;21420;52.196;21.416;2022-07-29T07:05:58;100817.09;;;21.36;57.57
35307;BME280;21420;52.196;21.416;2022-07-29T07:08:25;100820.80;;;21.88;57.02
35307;BME280;21420;52.196;21.416;2022-07-29T07:10:52;100812.30;;;22.31;56.46
35307;BME280;21420;52.196;21.416;2022-07-29T07:13:19;100806.05;;;23.09;56.85
35307;BME280;21420;52.196;21.416;2022-07-29T07:15:46;100808.34;;;24.01;57.01
35307;BME280;21420;52.196;21.416;2022-07-29T07:18:15;100817.59;;;24.98;56.86
35307;BME280;21420;52.196;21.416;2022-07-29T07:20:42;100812.50;;;25.95;56.56
35307;BME280;21420;52.196;21.416;2022-07-29T07:23:08;100815.81;;;26.83;56.00
35307;BME280;21420;52.196;21.416;2022-07-29T07:25:35;100813.22;;;27.62;55.60
35307;BME280;21420;52.196;21.416;2022-07-29T07:28:02;100815.81;;;28.49;55.27
35307;BME280;21420;52.196;21.416;2022-07-29T07:30:28;100809.58;;;29.05;54.20
35307;BME280;21420;52.196;21.416;2022-07-29T07:32:55;100819.47;;;29.71;53.79
35307;BME280;21420;52.196;21.416;2022-07-29T07:35:21;100818.62;;;30.27;53.12
35307;BME280;21420;52.196;21.416;2022-07-29T07:37:47;100820.48;;;30.93;52.61
35307;BME280;21420;52.196;21.416;2022-07-29T07:40:14;100818.95;;;31.01;50.46
35307;BME280;21420;52.196;21.416;2022-07-29T07:42:40;100818.89;;;30.87;50.44
35307;BME280;21420;52.196;21.416;2022-07-29T07:45:08;100820.85;;;31.18;49.66
35307;BME280;21420;52.196;21.416;2022-07-29T07:47:36;100816.20;;;31.42;50.21
35307;BME280;21420;52.196;21.416;2022-07-29T07:50:06;100820.40;;;32.21;49.66
35307;BME280;21420;52.196;21.416;2022-07-29T07:52:34;100815.47;;;32.35;48.99
35307;BME280;21420;52.196;21.416;2022-07-29T07:55:16;100825.61;;;32.65;48.15
35307;BME280;21420;52.196;21.416;2022-07-29T07:57:43;100817.63;;;32.87;48.45
35307;BME280;21420;52.196;21.416;2022-07-29T08:00:10;100819.86;;;33.60;48.28
35307;BME280;21420;52.196;21.416;2022-07-29T08:02:39;100811.93;;;33.98;46.51
35307;BME280;21420;52.196;21.416;2022-07-29T08:05:07;100816.56;;;33.76;45.83
35307;BME280;21420;52.196;21.416;2022-07-29T08:07:34;100820.37;;;33.10;43.97
35307;BME280;21420;52.196;21.416;2022-07-29T08:10:04;100818.59;;;32.84;45.51
35307;BME280;21420;52.196;21.416;2022-07-29T08:12:30;100822.09;;;33.90;46.53
35307;BME280;21420;52.196;21.416;2022-07-29T08:14:57;100822.71;;;34.09;45.28
35307;BME280;21420;52.196;21.416;2022-07-29T08:17:23;100822.43;;;34.77;45.10
35307;BME280;21420;52.196;21.416;2022-07-29T08:19:50;100827.05;;;35.40;45.46
35307;BME280;21420;52.196;21.416;2022-07-29T08:22:16;100815.46;;;36.33;45.53
35307;BME280;21420;52.196;21.416;2022-07-29T08:24:42;100819.05;;;37.02;44.91
35307;BME280;21420;52.196;21.416;2022-07-29T08:27:13;100811.89;;;37.18;43.14
35307;BME280;21420;52.196;21.416;2022-07-29T08:29:38;100812.63;;;37.46;43.87
35307;BME280;21420;52.196;21.416;2022-07-29T08:32:05;100817.77;;;37.30;42.21
35307;BME280;21420;52.196;21.416;2022-07-29T08:34:32;100817.36;;;37.60;42.61
35307;BME280;21420;52.196;21.416;2022-07-29T08:36:58;100811.50;;;38.20;42.52
35307;BME280;21420;52.196;21.416;2022-07-29T08:39:25;100817.47;;;38.33;42.23
35307;BME280;21420;52.196;21.416;2022-07-29T08:41:54;100811.08;;;38.68;41.35
35307;BME280;21420;52.196;21.416;2022-07-29T08:44:20;100809.16;;;38.07;39.40
35307;BME280;21420;52.196;21.416;2022-07-29T08:46:48;100803.20;;;36.37;39.20
35307;BME280;21420;52.196;21.416;2022-07-29T08:49:16;100813.54;;;35.35;39.02
35307;BME280;21420;52.196;21.416;2022-07-29T08:51:43;100813.25;;;35.33;40.40
35307;BME280;21420;52.196;21.416;2022-07-29T08:54:11;100809.30;;;36.24;40.17
35307;BME280;21420;52.196;21.416;2022-07-29T08:56:39;100803.71;;;35.47;37.91
35307;BME280;21420;52.196;21.416;2022-07-29T08:59:08;100804.36;;;34.30;38.60
35307;BME280;21420;52.196;21.416;2022-07-29T09:01:37;100805.56;;;33.50;38.20
35307;BME280;21420;52.196;21.416;2022-07-29T09:04:06;100803.84;;;34.01;39.68
35307;BME280;21420;52.196;21.416;2022-07-29T09:06:37;100806.23;;;35.03;39.69
35307;BME280;21420;52.196;21.416;2022-07-29T09:09:09;100795.36;;;35.74;39.55
35307;BME280;21420;52.196;21.416;2022-07-29T09:11:37;100805.89;;;36.36;39.04
35307;BME280;21420;52.196;21.416;2022-07-29T09:14:03;100804.74;;;36.38;38.79
35307;BME280;21420;52.196;21.416;2022-07-29T09:16:53;100801.00;;;37.55;39.22
35307;BME280;21420;52.196;21.416;2022-07-29T09:19:31;100795.02;;;38.20;37.92
35307;BME280;21420;52.196;21.416;2022-07-29T09:21:57;100800.06;;;38.31;37.82
35307;BME280;21420;52.196;21.416;2022-07-29T09:24:37;100796.45;;;38.88;37.56
35307;BME280;21420;52.196;21.416;2022-07-29T09:29:45;100787.87;;;38.08;35.27
35307;BME280;21420;52.196;21.416;2022-07-29T09:32:12;100779.13;;;38.41;36.89
35307;BME280;21420;52.196;21.416;2022-07-29T09:34:38;100793.08;;;38.96;36.10
35307;BME280;21420;52.196;21.416;2022-07-29T09:37:06;100792.11;;;39.46;35.97
35307;BME280;21420;52.196;21.416;2022-07-29T09:39:41;100799.46;;;38.95;34.81
35307;BME280;21420;52.196;21.416;2022-07-29T09:42:07;100794.55;;;37.66;34.58
35307;BME280;21420;52.196;21.416;2022-07-29T09:44:48;100791.38;;;37.20;35.22
35307;BME280;21420;52.196;21.416;2022-07-29T09:47:16;100794.09;;;36.17;34.40
35307;BME280;21420;52.196;21.416;2022-07-29T09:49:58;100786.08;;;36.96;35.74
35307;BME280;21420;52.196;21.416;2022-07-29T09:52:27;100784.79;;;37.62;35.14
35307;BME280;21420;52.196;21.416;2022-07-29T09:55:06;100780.11;;;36.72;34.73
35307;BME280;21420;52.196;21.416;2022-07-29T09:57:33;100775.27;;;35.99;34.52
35307;BME280;21420;52.196;21.416;2022-07-29T10:00:07;100779.60;;;36.20;34.95
35307;BME280;21420;52.196;21.416;2022-07-29T10:02:42;100769.35;;;36.93;35.47
35307;BME280;21420;52.196;21.416;2022-07-29T10:05:24;100768.05;;;37.16;34.69
35307;BME280;21420;52.196;21.416;2022-07-29T10:07:54;100768.78;;;37.11;34.09
35307;BME280;21420;52.196;21.416;2022-07-29T10:10:33;100771.19;;;37.73;34.97
35307;BME280;21420;52.196;21.416;2022-07-29T10:13:06;100768.34;;;38.41;34.88
35307;BME280;21420;52.196;21.416;2022-07-29T10:15:41;100767.41;;;38.62;34.68
35307;BME280;21420;52.196;21.416;2022-07-29T10:18:11;100768.34;;;39.04;34.45
35307;BME280;21420;52.196;21.416;2022-07-29T10:20:38;100767.69;;;39.04;34.07
35307;BME280;21420;52.196;21.416;2022-07-29T10:23:05;100757.51;;;38.68;33.28
35307;BME280;21420;52.196;21.416;2022-07-29T10:25:32;100753.60;;;37.47;32.01
35307;BME280;21420;52.196;21.416;2022-07-29T10:27:59;100764.24;;;36.44;32.05
35307;BME280;21420;52.196;21.416;2022-07-29T10:30:26;100757.44;;;36.04;32.45
35307;BME280;21420;52.196;21.416;2022-07-29T10:39:14;100758.38;;;34.92;33.21
35307;BME280;21420;52.196;21.416;2022-07-29T10:44:22;100748.36;;;32.84;32.10
35307;BME280;21420;52.196;21.416;2022-07-29T10:46:51;100745.76;;;32.33;32.73
35307;BME280;21420;52.196;21.416;2022-07-29T10:49:23;100736.69;;;32.20;33.13
35307;BME280;21420;52.196;21.416;2022-07-29T10:52:06;100744.16;;;32.41;33.46
35307;BME280;21420;52.196;21.416;2022-07-29T10:54:46;100739.16;;;32.36;32.96
35307;BME280;21420;52.196;21.416;2022-07-29T10:57:24;100740.89;;;32.29;33.37
35307;BME280;21420;52.196;21.416;2022-07-29T11:02:41;100740.99;;;32.44;33.53
35307;BME280;21420;52.196;21.416;2022-07-29T11:05:16;100735.78;;;32.80;33.84
35307;BME280;21420;52.196;21.416;2022-07-29T11:10:43;100733.88;;;34.24;33.49
35307;BME280;21420;52.196;21.416;2022-07-29T11:13:10;100732.98;;;34.32;33.45
35307;BME280;21420;52.196;21.416;2022-07-29T11:15:53;100732.53;;;34.54;32.96
35307;BME280;21420;52.196;21.416;2022-07-29T11:18:20;100732.01;;;34.71;33.10
35307;BME280;21420;52.196;21.416;2022-07-29T11:20:48;100730.58;;;34.81;32.88
35307;BME280;21420;52.196;21.416;2022-07-29T11:23:21;100728.80;;;34.73;32.57
35307;BME280;21420;52.196;21.416;2022-07-29T11:28:53;100729.75;;;34.25;32.62
35307;BME280;21420;52.196;21.416;2022-07-29T11:31:42;100726.41;;;33.71;32.12
35307;BME280;21420;52.196;21.416;2022-07-29T11:34:25;100724.41;;;32.85;31.61
35307;BME280;21420;52.196;21.416;2022-07-29T11:40:09;100721.61;;;32.80;32.62
35307;BME280;21420;52.196;21.416;2022-07-29T11:45:04;100715.27;;;33.09;32.66
35307;BME280;21420;52.196;21.416;2022-07-29T11:47:53;100717.03;;;33.07;32.72
35307;BME280;21420;52.196;21.416;2022-07-29T11:50:33;100713.12;;;33.00;32.53
35307;BME280;21420;52.196;21.416;2022-07-29T11:52:59;100705.91;;;32.74;32.47
35307;BME280;21420;52.196;21.416;2022-07-29T11:55:27;100706.97;;;32.53;32.34
35307;BME280;21420;52.196;21.416;2022-07-29T11:57:56;100704.38;;;31.84;31.66
35307;BME280;21420;52.196;21.416;2022-07-29T12:00:28;100704.63;;;31.52;32.25
35307;BME280;21420;52.196;21.416;2022-07-29T12:02:58;100700.97;;;31.61;32.63
35307;BME280;21420;52.196;21.416;2022-07-29T12:08:18;100702.09;;;31.64;32.78
35307;BME280;21420;52.196;21.416;2022-07-29T12:10:47;100695.88;;;31.84;32.75
35307;BME280;21420;52.196;21.416;2022-07-29T12:13:15;100695.40;;;31.90;32.88
35307;BME280;21420;52.196;21.416;2022-07-29T12:15:57;100702.41;;;32.46;33.10
35307;BME280;21420;52.196;21.416;2022-07-29T12:18:24;100698.16;;;32.46;32.49
35307;BME280;21420;52.196;21.416;2022-07-29T12:20:58;100700.30;;;32.65;32.71
35307;BME280;21420;52.196;21.416;2022-07-29T12:23:27;100691.47;;;32.68;32.17
35307;BME280;21420;52.196;21.416;2022-07-29T12:25:54;100694.80;;;32.62;32.18
35307;BME280;21420;52.196;21.416;2022-07-29T12:28:20;100688.30;;;32.37;31.89
35307;BME280;21420;52.196;21.416;2022-07-29T12:30:49;100688.64;;;32.34;32.46
35307;BME280;21420;52.196;21.416;2022-07-29T12:33:25;100687.31;;;32.54;32.58
35307;BME280;21420;52.196;21.416;2022-07-29T12:35:58;100690.19;;;32.35;32.00
35307;BME280;21420;52.196;21.416;2022-07-29T12:38:27;100681.17;;;31.70;32.01
35307;BME280;21420;52.196;21.416;2022-07-29T12:40:54;100681.31;;;31.71;32.49
35307;BME280;21420;52.196;21.416;2022-07-29T12:43:24;100679.83;;;31.99;32.62
35307;BME280;21420;52.196;21.416;2022-07-29T12:45:52;100682.95;;;32.39;32.89
35307;BME280;21420;52.196;21.416;2022-07-29T12:48:34;100676.15;;;32.74;32.63
35307;BME280;21420;52.196;21.416;2022-07-29T12:51:05;100682.96;;;32.87;32.66
35307;BME280;21420;52.196;21.416;2022-07-29T12:53:33;100676.55;;;33.41;32.90
35307;BME280;21420;52.196;21.416;2022-07-29T12:56:00;100679.34;;;33.45;32.25
35307;BME280;21420;52.196;21.416;2022-07-29T12:58:39;100680.51;;;33.58;32.43
35307;BME280;21420;52.196;21.416;2022-07-29T13:01:16;100682.86;;;33.55;31.74
35307;BME280;21420;52.196;21.416;2022-07-29T13:03:50;100669.66;;;32.98;31.72
35307;BME280;21420;52.196;21.416;2022-07-29T13:06:42;100664.14;;;32.80;31.75
35307;BME280;21420;52.196;21.416;2022-07-29T13:09:12;100668.30;;;32.69;32.00
35307;BME280;21420;52.196;21.416;2022-07-29T13:11:50;100657.14;;;32.90;32.03
35307;BME280;21420;52.196;21.416;2022-07-29T13:14:32;100658.79;;;32.96;32.00
35307;BME280;21420;52.196;21.416;2022-07-29T13:17:22;100665.34;;;33.07;32.04
35307;BME280;21420;52.196;21.416;2022-07-29T13:19:51;100657.87;;;33.14;32.00
35307;BME280;21420;52.196;21.416;2022-07-29T13:22:20;100652.58;;;33.27;32.15
35307;BME280;21420;52.196;21.416;2022-07-29T13:24:53;100652.73;;;33.43;32.17
35307;BME280;21420;52.196;21.416;2022-07-29T13:27:22;100656.94;;;33.47;31.97
35307;BME280;21420;52.196;21.416;2022-07-29T13:29:51;100650.70;;;33.04;31.38
35307;BME280;21420;52.196;21.416;2022-07-29T13:32:20;100651.93;;;32.69;31.42
35307;BME280;21420;52.196;21.416;2022-07-29T13:34:46;100647.71;;;32.64;31.78
35307;BME280;21420;52.196;21.416;2022-07-29T13:37:13;100645.35;;;32.63;31.65
35307;BME280;21420;52.196;21.416;2022-07-29T13:39:39;100643.59;;;32.41;31.65
35307;BME280;21420;52.196;21.416;2022-07-29T13:42:06;100641.16;;;32.29;31.71